Arlington, Kansas
Current Conditions -  °F | °C
As of 7:52 PM on Tuesday 21 Oct 2014 (Local Time) from KHUT Reporting Station
Clear Clear  
Wind Chill: 70°   Ceiling: Unl
Heat Index: 70°   Visibility: 10mi
Dew Point: 58°   Wind: 8mph
Humidity: 65%   Direction: 130°SE
Pressure: 30.01"   Gusts: NA
Location:  37.9°N, 98.18°W
Report Text: KHUT 220052Z 13007KT 10SM CLR 21/14 A3001 RMK AO2 SLP148 T02110144
Loading
Personal Weather Stations






























Interactive Weather Map
Tropical Storm Tracking
New forecast layout! Learn more

10-Day Weather Forecast

Advertisements
Track Severe Weather on mobile